createdAt,value
2022-12-20T00:01:30.629Z,4.76
2022-12-20T00:03:59.685Z,4.78
2022-12-20T00:06:26.699Z,4.83
2022-12-20T00:08:58.792Z,4.75
2022-12-20T00:11:26.872Z,4.78
2022-12-20T00:13:53.390Z,4.78
2022-12-20T00:16:22.674Z,4.92
2022-12-20T00:18:53.891Z,4.91
2022-12-20T00:21:20.418Z,4.91
2022-12-20T00:23:46.755Z,4.87
2022-12-20T00:26:16.262Z,4.91
2022-12-20T00:28:43.363Z,4.95
2022-12-20T00:31:10.892Z,4.88
2022-12-20T00:33:38.391Z,4.92
2022-12-20T00:36:06.685Z,4.95
2022-12-20T00:38:34.120Z,4.93
2022-12-20T00:41:01.305Z,5.00
2022-12-20T00:43:28.881Z,4.96
2022-12-20T00:45:55.225Z,5.02
2022-12-20T00:48:22.120Z,5.06
2022-12-20T00:50:48.699Z,5.08
2022-12-20T00:53:15.178Z,5.05
2022-12-20T00:55:46.471Z,5.09
2022-12-20T00:58:13.553Z,5.08
2022-12-20T01:00:40.201Z,5.11
2022-12-20T01:03:07.213Z,5.12
2022-12-20T01:05:33.744Z,5.16
2022-12-20T01:08:00.232Z,5.20
2022-12-20T01:10:27.290Z,5.25
2022-12-20T01:12:54.323Z,5.19
2022-12-20T01:15:21.231Z,5.22
2022-12-20T01:17:48.377Z,5.15
2022-12-20T01:20:14.675Z,5.13
2022-12-20T01:22:47.238Z,5.20
2022-12-20T01:25:14.079Z,5.14
2022-12-20T01:27:40.368Z,5.14
2022-12-20T01:30:07.238Z,5.08
2022-12-20T01:32:33.533Z,5.13
2022-12-20T01:34:59.805Z,5.22
2022-12-20T01:37:26.162Z,5.23
2022-12-20T01:39:52.444Z,5.30
2022-12-20T01:42:18.732Z,5.30
2022-12-20T01:44:45.099Z,5.29
2022-12-20T01:47:13.032Z,5.36
2022-12-20T01:49:44.632Z,5.44
2022-12-20T01:52:22.769Z,5.45
2022-12-20T01:54:55.082Z,5.49
2022-12-20T01:57:29.365Z,5.51
2022-12-20T01:59:57.378Z,5.58
2022-12-20T02:02:24.757Z,5.58
2022-12-20T02:04:51.139Z,5.55
2022-12-20T02:07:24.641Z,5.55
2022-12-20T02:09:54.387Z,5.61
2022-12-20T02:12:24.704Z,5.68
2022-12-20T02:15:22.817Z,5.69
2022-12-20T02:17:51.975Z,5.72
2022-12-20T02:20:47.920Z,5.74
2022-12-20T02:23:35.234Z,5.73
2022-12-20T02:26:48.653Z,5.76
2022-12-20T02:29:30.632Z,5.80
2022-12-20T02:32:22.558Z,5.79
2022-12-20T02:34:50.772Z,5.80
2022-12-20T02:37:17.726Z,5.76
2022-12-20T02:39:46.062Z,5.83
2022-12-20T02:42:16.413Z,5.88
2022-12-20T02:45:19.595Z,5.95
2022-12-20T02:47:54.957Z,5.99
2022-12-20T02:50:26.418Z,6.00
2022-12-20T02:52:53.517Z,5.92
2022-12-20T02:55:29.289Z,5.93
2022-12-20T02:58:03.434Z,5.99
2022-12-20T03:00:37.313Z,5.93
2022-12-20T03:03:24.161Z,6.02
2022-12-20T03:05:54.159Z,6.08
2022-12-20T03:08:22.022Z,6.08
2022-12-20T03:10:49.801Z,6.13
2022-12-20T03:13:16.738Z,6.04
2022-12-20T03:15:43.259Z,6.01
2022-12-20T03:18:10.756Z,6.08
2022-12-20T03:20:37.447Z,6.12
2022-12-20T03:23:04.283Z,6.18
2022-12-20T03:25:30.736Z,6.25
2022-12-20T03:27:57.128Z,6.23
2022-12-20T03:30:23.663Z,6.15
2022-12-20T03:32:50.080Z,6.21
2022-12-20T03:35:16.671Z,6.22
2022-12-20T03:37:43.132Z,6.30
2022-12-20T03:40:10.212Z,6.30
2022-12-20T03:42:37.092Z,6.38
2022-12-20T03:45:06.309Z,6.36
2022-12-20T03:47:32.699Z,6.44
2022-12-20T03:49:59.056Z,6.44
2022-12-20T03:52:26.807Z,6.43
2022-12-20T03:54:53.189Z,6.43
2022-12-20T03:57:19.679Z,6.42
2022-12-20T03:59:46.150Z,6.49
2022-12-20T04:02:12.692Z,6.49
2022-12-20T04:04:39.226Z,6.50
2022-12-20T04:07:05.630Z,6.55
2022-12-20T04:09:31.928Z,6.40
2022-12-20T04:11:58.241Z,6.42
2022-12-20T04:14:24.643Z,6.51
2022-12-20T04:16:50.982Z,6.54
2022-12-20T04:19:17.380Z,6.57
2022-12-20T04:21:43.961Z,6.61
2022-12-20T04:24:10.511Z,6.56
2022-12-20T04:26:37.532Z,6.53
2022-12-20T04:29:04.886Z,6.56
2022-12-20T04:31:31.544Z,6.62
2022-12-20T04:33:58.246Z,6.59
2022-12-20T04:36:24.882Z,6.65
2022-12-20T04:38:51.357Z,6.62
2022-12-20T04:41:24.046Z,6.63
2022-12-20T04:43:57.530Z,6.66
2022-12-20T04:46:26.297Z,6.67
2022-12-20T04:48:58.281Z,6.71
2022-12-20T04:51:26.295Z,6.76
2022-12-20T04:53:53.515Z,6.77
2022-12-20T04:56:28.810Z,6.79
2022-12-20T04:58:56.930Z,6.72
2022-12-20T05:01:23.471Z,6.74
2022-12-20T05:03:50.401Z,6.70
2022-12-20T05:06:16.933Z,6.64
2022-12-20T05:08:43.355Z,6.65
2022-12-20T05:11:09.760Z,6.62
2022-12-20T05:13:36.507Z,6.59
2022-12-20T05:16:03.021Z,6.57
2022-12-20T05:18:29.695Z,6.59
2022-12-20T05:21:17.520Z,6.62
2022-12-20T05:24:02.760Z,6.68
2022-12-20T05:26:32.377Z,6.58
2022-12-20T05:28:58.801Z,6.65
2022-12-20T05:31:25.179Z,6.55
2022-12-20T05:33:51.495Z,6.51
2022-12-20T05:36:18.204Z,6.51
2022-12-20T05:38:44.624Z,6.53
2022-12-20T05:41:11.007Z,6.58
2022-12-20T05:43:37.441Z,6.51
2022-12-20T05:46:03.766Z,6.47
2022-12-20T05:48:30.218Z,6.41
2022-12-20T05:50:56.859Z,6.44
2022-12-20T05:53:23.809Z,6.48
2022-12-20T05:55:52.424Z,6.43
2022-12-20T05:58:19.160Z,6.38
2022-12-20T06:00:47.280Z,6.29
2022-12-20T06:03:17.614Z,6.32
2022-12-20T06:05:45.331Z,6.30
2022-12-20T06:08:12.416Z,6.33
2022-12-20T06:10:40.416Z,6.26
2022-12-20T06:13:08.108Z,6.29
2022-12-20T06:15:34.482Z,6.23
2022-12-20T06:18:01.019Z,6.21
2022-12-20T06:20:28.441Z,6.28
2022-12-20T06:22:54.899Z,6.30
2022-12-20T06:25:21.257Z,6.10
2022-12-20T06:27:47.613Z,6.14
2022-12-20T06:30:14.368Z,6.11
2022-12-20T06:32:40.678Z,6.11
2022-12-20T06:35:07.696Z,6.09
2022-12-20T06:37:34.070Z,6.08
2022-12-20T06:40:00.414Z,6.10
2022-12-20T06:42:26.843Z,6.09
2022-12-20T06:44:53.183Z,6.02
2022-12-20T06:47:20.061Z,6.04
2022-12-20T06:49:46.437Z,6.06
2022-12-20T06:52:12.782Z,6.07
2022-12-20T06:54:39.101Z,6.04
2022-12-20T06:57:06.709Z,6.00
2022-12-20T06:59:33.213Z,6.01
2022-12-20T07:01:59.696Z,6.04
2022-12-20T07:04:26.253Z,6.08
2022-12-20T07:06:52.680Z,6.14
2022-12-20T07:09:19.528Z,6.22
2022-12-20T07:11:45.841Z,6.22
2022-12-20T07:14:13.510Z,6.21
2022-12-20T07:16:42.596Z,6.23
2022-12-20T07:19:15.348Z,6.30
2022-12-20T07:21:42.837Z,6.26
2022-12-20T07:24:09.981Z,6.30
2022-12-20T07:26:36.424Z,6.32
2022-12-20T07:29:03.898Z,6.40
2022-12-20T07:31:30.337Z,6.44
2022-12-20T07:33:56.783Z,6.48
2022-12-20T07:36:23.143Z,6.52
2022-12-20T07:38:49.478Z,6.57
2022-12-20T07:41:18.091Z,6.53
2022-12-20T07:43:44.885Z,6.54
2022-12-20T07:46:14.201Z,6.61
2022-12-20T07:48:40.661Z,6.58
2022-12-20T07:51:18.815Z,6.60
2022-12-20T07:53:58.928Z,6.60
2022-12-20T07:56:26.934Z,6.74
2022-12-20T07:58:58.873Z,6.69
2022-12-20T08:01:27.620Z,6.63
2022-12-20T08:04:02.347Z,6.55
2022-12-20T08:06:29.832Z,6.60
2022-12-20T08:09:01.092Z,6.64
2022-12-20T08:11:28.817Z,6.66
2022-12-20T08:13:58.135Z,6.59
2022-12-20T08:16:25.817Z,6.61
2022-12-20T08:18:52.711Z,6.61
2022-12-20T08:21:19.128Z,6.60
2022-12-20T08:23:45.581Z,6.66
2022-12-20T08:26:11.915Z,6.50
2022-12-20T08:28:38.327Z,6.60
2022-12-20T08:31:07.442Z,6.52
2022-12-20T08:33:35.886Z,6.57
2022-12-20T08:36:06.245Z,6.54
2022-12-20T08:38:33.312Z,6.57
2022-12-20T08:41:07.676Z,6.63
2022-12-20T08:43:34.648Z,6.58
2022-12-20T08:46:01.082Z,6.61
2022-12-20T08:48:27.635Z,6.59
2022-12-20T08:51:00.933Z,6.61
2022-12-20T08:53:28.529Z,6.64
2022-12-20T08:56:02.682Z,6.65
2022-12-20T08:58:29.023Z,6.75
2022-12-20T09:01:04.536Z,6.78
2022-12-20T09:03:33.404Z,6.83
2022-12-20T09:06:00.248Z,6.88
2022-12-20T09:08:26.983Z,6.90
2022-12-20T09:10:53.905Z,6.80
2022-12-20T09:13:21.556Z,6.82
2022-12-20T09:15:48.056Z,6.79
2022-12-20T09:18:14.404Z,6.84
2022-12-20T09:20:45.277Z,6.93
2022-12-20T09:23:12.137Z,6.97
2022-12-20T09:25:38.613Z,6.95
2022-12-20T09:28:05.939Z,6.95
2022-12-20T09:30:32.785Z,7.00
2022-12-20T09:33:10.182Z,7.12
2022-12-20T09:35:37.317Z,7.13
2022-12-20T09:38:06.116Z,7.09
2022-12-20T09:40:33.168Z,7.17
2022-12-20T09:42:59.920Z,7.17
2022-12-20T09:45:29.530Z,7.20
2022-12-20T09:47:55.893Z,7.25
2022-12-20T09:50:46.801Z,7.30
2022-12-20T09:53:34.304Z,7.30
2022-12-20T09:56:13.638Z,7.21
2022-12-20T09:59:18.598Z,7.30
2022-12-20T10:01:47.369Z,7.41
2022-12-20T10:04:34.314Z,7.46
2022-12-20T10:07:06.719Z,7.43
2022-12-20T10:09:54.450Z,7.45
2022-12-20T10:12:42.412Z,7.46
2022-12-20T10:15:20.466Z,7.50
2022-12-20T10:18:17.208Z,7.54
2022-12-20T10:20:43.575Z,7.57
2022-12-20T10:23:32.835Z,7.62
2022-12-20T10:25:59.706Z,7.66
2022-12-20T10:28:29.453Z,7.55
2022-12-20T10:31:01.787Z,7.61
2022-12-20T10:33:29.289Z,7.67
2022-12-20T10:35:55.806Z,7.68
2022-12-20T10:38:23.961Z,7.71
2022-12-20T10:41:23.168Z,7.81
2022-12-20T10:43:56.210Z,7.85
2022-12-20T10:46:24.122Z,7.82
2022-12-20T10:48:51.733Z,7.75
2022-12-20T10:51:21.900Z,7.85
2022-12-20T10:54:03.214Z,7.87
2022-12-20T10:56:32.386Z,8.02
2022-12-20T10:59:23.612Z,7.99
2022-12-20T11:01:50.494Z,7.94
2022-12-20T11:04:32.576Z,7.99
2022-12-20T11:07:02.687Z,8.05
2022-12-20T11:09:29.132Z,8.04
2022-12-20T11:12:14.101Z,7.93
2022-12-20T11:14:43.698Z,8.00
2022-12-20T11:17:33.034Z,7.98
2022-12-20T11:20:42.867Z,7.95
2022-12-20T11:23:27.856Z,7.95
2022-12-20T11:26:28.936Z,7.98
2022-12-20T11:29:20.191Z,8.04
2022-12-20T11:32:21.153Z,8.06
2022-12-20T11:35:06.161Z,8.13
2022-12-20T11:37:56.053Z,8.07
2022-12-20T11:40:34.236Z,8.13
2022-12-20T11:43:30.917Z,8.23
2022-12-20T11:46:38.836Z,8.10
2022-12-20T11:49:13.690Z,8.16
2022-12-20T11:51:47.924Z,8.09
2022-12-20T11:54:28.848Z,8.21
2022-12-20T11:57:05.233Z,8.22
2022-12-20T11:59:42.504Z,8.13
2022-12-20T12:02:13.487Z,8.07
2022-12-20T12:04:50.686Z,8.05
2022-12-20T12:07:21.923Z,8.04
2022-12-20T12:10:01.558Z,8.02
2022-12-20T12:12:41.110Z,8.14
2022-12-20T12:15:28.011Z,8.05
2022-12-20T12:17:54.528Z,8.03
2022-12-20T12:20:35.092Z,8.04
2022-12-20T12:23:40.241Z,8.13
2022-12-20T12:26:16.116Z,8.00
2022-12-20T12:28:42.487Z,8.02
2022-12-20T12:31:18.410Z,7.99
2022-12-20T12:34:05.985Z,7.93
2022-12-20T12:37:03.075Z,7.90
2022-12-20T12:40:10.374Z,7.89
2022-12-20T12:42:58.997Z,7.86
2022-12-20T12:45:46.427Z,7.90
2022-12-20T12:48:12.778Z,7.84
2022-12-20T12:50:45.217Z,7.85
2022-12-20T12:53:34.087Z,7.84
2022-12-20T12:56:46.637Z,7.73
2022-12-20T12:59:13.215Z,7.80
2022-12-20T13:01:50.749Z,7.85
2022-12-20T13:04:20.315Z,7.79
2022-12-20T13:07:23.202Z,7.81
2022-12-20T13:09:49.633Z,7.86
2022-12-20T13:12:51.507Z,7.87
2022-12-20T13:15:21.059Z,7.86
2022-12-20T13:17:56.614Z,7.88
2022-12-20T13:20:32.081Z,7.89
2022-12-20T13:23:07.682Z,7.94
2022-12-20T13:25:48.218Z,7.98
2022-12-20T13:28:23.476Z,8.03
2022-12-20T13:31:02.311Z,7.95
2022-12-20T13:33:47.463Z,7.90
2022-12-20T13:36:17.663Z,7.95
2022-12-20T13:38:57.285Z,7.93
2022-12-20T13:41:44.259Z,7.93
2022-12-20T13:44:32.405Z,7.96
2022-12-20T13:47:11.359Z,7.94
2022-12-20T13:49:40.630Z,7.88
2022-12-20T13:52:28.544Z,7.87
2022-12-20T13:54:58.331Z,7.88
2022-12-20T13:57:32.957Z,7.84
2022-12-20T14:00:07.058Z,7.77
2022-12-20T14:02:40.260Z,7.75
2022-12-20T14:05:14.809Z,7.71
2022-12-20T14:07:42.415Z,7.68
2022-12-20T14:10:24.201Z,7.62
2022-12-20T14:12:54.261Z,7.69
2022-12-20T14:15:25.745Z,7.73
2022-12-20T14:17:52.549Z,7.60
2022-12-20T14:20:26.163Z,7.59
2022-12-20T14:23:04.233Z,7.66
2022-12-20T14:25:53.694Z,7.68
2022-12-20T14:28:31.614Z,7.67
2022-12-20T14:31:01.145Z,7.68
2022-12-20T14:33:39.374Z,7.65
2022-12-20T14:36:19.013Z,7.69
2022-12-20T14:38:48.391Z,7.69
2022-12-20T14:41:30.345Z,7.70
2022-12-20T14:44:02.295Z,7.68
2022-12-20T14:46:30.899Z,7.72
2022-12-20T14:49:15.960Z,7.74
2022-12-20T14:51:42.930Z,7.79
2022-12-20T14:57:23.816Z,7.79
2022-12-20T15:00:07.232Z,7.71
2022-12-20T15:02:42.908Z,7.69
2022-12-20T15:05:39.757Z,7.76
2022-12-20T15:08:19.956Z,7.71
2022-12-20T15:11:09.423Z,7.72
2022-12-20T15:13:49.247Z,7.70
2022-12-20T15:16:21.985Z,7.74
2022-12-20T15:18:50.381Z,7.77
2022-12-20T15:21:35.355Z,7.80
2022-12-20T15:24:07.669Z,7.68
2022-12-20T15:26:35.674Z,7.69
2022-12-20T15:29:02.145Z,7.63
2022-12-20T15:31:33.615Z,7.69
2022-12-20T15:34:03.595Z,7.72
2022-12-20T15:36:30.043Z,7.71
2022-12-20T15:39:14.711Z,7.67
2022-12-20T15:41:44.771Z,7.66
2022-12-20T15:44:17.409Z,7.71
2022-12-20T15:46:44.326Z,7.74
2022-12-20T15:49:15.987Z,7.67
2022-12-20T15:51:44.333Z,7.64
2022-12-20T15:54:33.062Z,7.69
2022-12-20T15:57:07.310Z,7.67
2022-12-20T15:59:59.861Z,7.57
2022-12-20T16:02:25.266Z,7.51
2022-12-20T16:04:53.478Z,7.54
2022-12-20T16:07:20.241Z,7.61
2022-12-20T16:09:46.666Z,7.57
2022-12-20T16:12:20.449Z,7.57
2022-12-20T16:14:46.803Z,7.60
2022-12-20T16:17:15.888Z,7.60
2022-12-20T16:19:43.262Z,7.56
2022-12-20T16:22:17.911Z,7.60
2022-12-20T16:24:45.379Z,7.49
2022-12-20T16:27:11.798Z,7.54
2022-12-20T16:29:38.200Z,7.58
2022-12-20T16:32:14.362Z,7.58
2022-12-20T16:34:40.862Z,7.51
2022-12-20T16:37:07.692Z,7.53
2022-12-20T16:39:33.973Z,7.48
2022-12-20T16:42:01.589Z,7.56
2022-12-20T16:44:27.969Z,7.58
2022-12-20T16:46:55.851Z,7.56
2022-12-20T16:49:22.248Z,7.53
2022-12-20T16:51:49.141Z,7.58
2022-12-20T16:54:20.730Z,7.60
2022-12-20T16:56:49.335Z,7.61
2022-12-20T16:59:21.190Z,7.59
2022-12-20T17:01:49.672Z,7.53
2022-12-20T17:04:18.455Z,7.62
2022-12-20T17:06:45.294Z,7.63
2022-12-20T17:11:56.567Z,7.57
2022-12-20T17:14:22.972Z,7.66
2022-12-20T17:16:49.373Z,7.67
2022-12-20T17:19:16.220Z,7.62
2022-12-20T17:24:31.148Z,7.68
2022-12-20T17:26:58.178Z,7.68
2022-12-20T17:29:24.493Z,7.68
2022-12-20T17:31:51.454Z,7.62
2022-12-20T17:34:18.805Z,7.64
2022-12-20T17:36:46.247Z,7.65
2022-12-20T17:39:12.635Z,7.73
2022-12-20T17:41:39.663Z,7.70
2022-12-20T17:44:06.624Z,7.69
2022-12-20T17:46:34.061Z,7.70
2022-12-20T17:49:00.551Z,7.67
2022-12-20T17:51:29.652Z,7.69
2022-12-20T17:54:03.885Z,7.72
2022-12-20T17:56:36.685Z,7.75
2022-12-20T17:59:12.527Z,7.73
2022-12-20T18:01:39.625Z,7.78
2022-12-20T18:04:09.993Z,7.80
2022-12-20T18:06:40.602Z,7.76
2022-12-20T18:09:16.138Z,7.82
2022-12-20T18:11:42.734Z,7.88
2022-12-20T18:14:10.455Z,7.95
2022-12-20T18:16:38.907Z,7.91
2022-12-20T18:19:07.410Z,7.88
2022-12-20T18:21:34.690Z,7.88
2022-12-20T18:24:01.222Z,7.88
2022-12-20T18:26:29.986Z,7.89
2022-12-20T18:28:59.571Z,7.96
2022-12-20T18:31:28.951Z,7.97
2022-12-20T18:33:58.227Z,7.98
2022-12-20T18:36:30.779Z,7.88
2022-12-20T18:38:59.357Z,7.91
2022-12-20T18:41:28.554Z,7.90
2022-12-20T18:44:01.019Z,7.93
2022-12-20T18:46:28.270Z,7.88
2022-12-20T18:48:56.955Z,7.94
2022-12-20T18:51:26.335Z,7.95
2022-12-20T18:53:55.175Z,8.02
2022-12-20T18:56:26.663Z,8.02
2022-12-20T18:58:53.077Z,8.05
2022-12-20T19:01:22.065Z,8.06
2022-12-20T19:03:50.376Z,8.02
2022-12-20T19:06:17.277Z,7.99
2022-12-20T19:08:43.754Z,8.05
2022-12-20T19:11:13.708Z,8.09
2022-12-20T19:13:41.561Z,8.11
2022-12-20T19:16:11.671Z,8.09
2022-12-20T19:18:40.057Z,8.06
2022-12-20T19:21:17.604Z,8.00
2022-12-20T19:23:46.659Z,7.98
2022-12-20T19:26:16.780Z,8.05
2022-12-20T19:28:43.680Z,8.04
2022-12-20T19:31:21.531Z,8.05
2022-12-20T19:33:49.687Z,8.04
2022-12-20T19:36:25.703Z,8.03
2022-12-20T19:38:57.875Z,8.03
2022-12-20T19:41:30.497Z,8.11
2022-12-20T19:43:57.856Z,8.13
2022-12-20T19:46:29.125Z,8.12
2022-12-20T19:48:57.958Z,8.11
2022-12-20T19:51:25.454Z,8.04
2022-12-20T19:53:53.501Z,8.06
2022-12-20T19:56:22.833Z,8.03
2022-12-20T19:58:49.756Z,7.98
2022-12-20T20:01:17.850Z,7.98
2022-12-20T20:03:45.122Z,8.03
2022-12-20T20:06:11.789Z,7.98
2022-12-20T20:08:38.539Z,8.03
2022-12-20T20:11:09.321Z,8.03
2022-12-20T20:13:37.683Z,8.04
2022-12-20T20:16:06.420Z,8.02
2022-12-20T20:18:35.405Z,7.97
2022-12-20T20:21:09.405Z,7.90
2022-12-20T20:23:37.343Z,7.93
2022-12-20T20:26:09.591Z,7.93
2022-12-20T20:28:44.847Z,7.97
2022-12-20T20:31:14.700Z,8.05
2022-12-20T20:33:41.852Z,8.04
2022-12-20T20:36:12.295Z,8.07
2022-12-20T20:38:38.779Z,8.08
2022-12-20T20:41:06.421Z,8.05
2022-12-20T20:43:36.574Z,8.02
2022-12-20T20:46:05.974Z,8.04
2022-12-20T20:48:32.391Z,7.98
2022-12-20T20:50:58.965Z,7.99
2022-12-20T20:53:31.037Z,8.05
2022-12-20T20:55:59.627Z,7.97
2022-12-20T20:58:25.990Z,7.94
2022-12-20T21:00:56.742Z,7.99
2022-12-20T21:03:23.092Z,7.95
2022-12-20T21:08:36.837Z,8.05
2022-12-20T21:11:07.426Z,8.09
2022-12-20T21:13:34.683Z,8.08
2022-12-20T21:16:10.110Z,8.08
2022-12-20T21:18:36.629Z,8.06
2022-12-20T21:21:08.280Z,7.99
2022-12-20T21:23:34.997Z,8.06
2022-12-20T21:26:01.499Z,8.02
2022-12-20T21:28:30.119Z,8.04
2022-12-20T21:31:04.970Z,8.07
2022-12-20T21:33:31.355Z,8.09
2022-12-20T21:36:05.061Z,8.09
2022-12-20T21:38:32.536Z,8.02
2022-12-20T21:41:07.869Z,8.10
2022-12-20T21:43:34.844Z,8.03
2022-12-20T21:46:01.558Z,7.99
2022-12-20T21:48:29.563Z,8.06
2022-12-20T21:51:11.157Z,8.11
2022-12-20T21:53:43.393Z,8.13
2022-12-20T21:56:09.916Z,8.17
2022-12-20T21:58:36.255Z,8.12
2022-12-20T22:01:04.358Z,8.05
2022-12-20T22:03:31.036Z,8.10
2022-12-20T22:05:57.597Z,8.08
2022-12-20T22:08:27.785Z,8.09
2022-12-20T22:11:01.896Z,8.13
2022-12-20T22:13:31.200Z,7.99
2022-12-20T22:16:00.217Z,8.05
2022-12-20T22:18:26.648Z,8.05
2022-12-20T22:20:53.049Z,8.09
2022-12-20T22:23:19.428Z,8.10
2022-12-20T22:25:45.895Z,8.08
2022-12-20T22:28:12.707Z,8.09
2022-12-20T22:30:42.741Z,8.11
2022-12-20T22:33:09.150Z,8.06
2022-12-20T22:35:37.506Z,8.08
2022-12-20T22:38:05.263Z,8.02
2022-12-20T22:40:33.269Z,7.98
2022-12-20T22:42:59.819Z,8.03
2022-12-20T22:45:29.258Z,8.08
2022-12-20T22:47:55.614Z,8.05
2022-12-20T22:50:24.477Z,8.09
2022-12-20T22:52:53.582Z,8.09
2022-12-20T22:55:19.967Z,8.09
2022-12-20T22:57:46.375Z,8.08
2022-12-20T23:00:14.592Z,8.08
2022-12-20T23:02:42.979Z,8.10
2022-12-20T23:05:09.693Z,8.14
2022-12-20T23:07:36.179Z,8.08
2022-12-20T23:10:02.695Z,8.02
2022-12-20T23:12:47.754Z,8.04
2022-12-20T23:15:32.952Z,8.08
2022-12-20T23:17:59.338Z,8.13
2022-12-20T23:20:44.440Z,8.12
2022-12-20T23:23:10.805Z,8.11
2022-12-20T23:25:40.073Z,8.12
2022-12-20T23:28:06.384Z,8.04
2022-12-20T23:30:33.199Z,8.04
2022-12-20T23:32:59.624Z,8.09
2022-12-20T23:35:26.844Z,8.11
2022-12-20T23:37:55.884Z,8.18
2022-12-20T23:40:22.165Z,8.17
2022-12-20T23:42:48.519Z,8.22
2022-12-20T23:45:15.080Z,8.17
2022-12-20T23:47:41.433Z,8.10
2022-12-20T23:50:08.329Z,8.09
2022-12-20T23:52:34.716Z,8.12
2022-12-20T23:55:01.261Z,8.15
2022-12-20T23:57:30.314Z,8.05
2022-12-20T23:59:57.245Z,8.04
